Agia Marina — SX5375 — position and weather

sailwx.info

Track history (hours):
 
Tides and Currents Weather Stations Pressure Air Temp Water Temp Dewpoint Dewpoint Depression Visibility Wind Speed Wind Dir Waves Ship Positions

Agia Marina

Last reported at 2017-Feb-11 06:29 UTC. Time now 2017-Feb-23 09:23 UTC.
Position N 38°02' E 023°36'.
Warning: this ship's position is 12 days out of date.

Length 59 m; draft 2.5 m.

Type: Cargo ship. MMSI: 237042500.

Date/timePositionNaut miles runAvg speedWind from/ knotsBaromVisibWave heightAir tempDewpointWater temp
2017-Feb-11 06:29N 38°02' E 023°36'0 0.0
2017-Feb-11 05:33N 38°02' E 023°36'0 0.0
2017-Feb-11 04:33N 38°02' E 023°36'0 0.0
2017-Feb-11 03:33N 38°02' E 023°36'0 0.0
2017-Feb-11 02:34N 38°02' E 023°36'0 0.0
2017-Feb-11 01:33N 38°02' E 023°36'0 0.0
2017-Feb-11 00:33N 38°02' E 023°36'0 0.0
2017-Feb-10 23:34N 38°02' E 023°36'0 0.0
2017-Feb-10 22:34N 38°02' E 023°36'0 0.0
2017-Feb-10 21:32N 38°02' E 023°36'0 0.0
2017-Feb-10 20:34N 38°02' E 023°36'0 0.0
2017-Feb-10 19:31N 38°02' E 023°36'0 0.0
2017-Feb-10 18:33N 38°02' E 023°36'0 0.0
2017-Feb-10 17:33N 38°02' E 023°36'0 0.0
2017-Feb-10 16:32N 38°02' E 023°36'0 0.0
2017-Feb-10 15:30N 38°02' E 023°36'0 0.0
2017-Feb-10 14:33N 38°02' E 023°36'0 0.0
2017-Feb-10 13:33N 38°02' E 023°36'0 0.0
2017-Feb-10 12:33N 38°02' E 023°36'0 0.0
2017-Feb-10 11:33N 38°02' E 023°36'0 0.0
2017-Feb-10 10:33N 38°02' E 023°36'0 0.0
2017-Feb-10 09:33N 38°02' E 023°36'0 0.0
2017-Feb-10 08:33N 38°02' E 023°36'0 0.0
2017-Feb-10 07:33N 38°02' E 023°36'0 0.0
2017-Feb-10 06:32N 38°02' E 023°36'0 0.0
2017-Feb-10 05:31N 38°02' E 023°36'0 0.0
2017-Feb-10 04:32N 38°02' E 023°36'0 0.0
2017-Feb-10 02:33N 38°02' E 023°36'0 0.0
2017-Feb-10 01:34N 38°02' E 023°36'0 0.0
2017-Feb-10 00:33N 38°02' E 023°36'0 0.0
2017-Feb-09 23:33N 38°02' E 023°36'0 0.0
2017-Feb-09 22:33N 38°02' E 023°36'0 0.0
2017-Feb-09 21:33N 38°02' E 023°36'0 0.0
2017-Feb-09 20:33N 38°02' E 023°36'0 0.0
2017-Feb-09 19:33N 38°02' E 023°36'0 0.0
2017-Feb-09 18:33N 38°02' E 023°36'0 0.0
2017-Feb-09 17:33N 38°02' E 023°36'0 0.0
2017-Feb-09 16:33N 38°02' E 023°36'0 0.0
2017-Feb-09 15:33N 38°02' E 023°36'0 0.0
2017-Feb-09 14:33N 38°02' E 023°36'0 0.0
2017-Feb-09 13:32N 38°02' E 023°36'0 0.0
2017-Feb-09 12:33N 38°02' E 023°36'0 0.0
2017-Feb-09 11:29N 38°02' E 023°36'0 0.0
2017-Feb-09 10:33N 38°02' E 023°36'0 0.0
2017-Feb-09 09:33N 38°02' E 023°36'0 0.0
2017-Feb-09 08:33N 38°02' E 023°36'0 0.0
2017-Feb-09 07:33N 38°02' E 023°36'0 0.0
2017-Feb-09 06:34N 38°02' E 023°36'0 0.0
2017-Feb-09 05:34N 38°02' E 023°36'0 0.0
2017-Feb-09 04:33N 38°02' E 023°36'0 0.0
2017-Feb-09 03:34N 38°02' E 023°36'0 0.0
2017-Feb-09 02:34N 38°02' E 023°36'0 0.0
2017-Feb-09 01:34N 38°02' E 023°36'0 0.0
2017-Feb-09 00:34N 38°02' E 023°36'0 0.0
2017-Feb-08 23:33N 38°02' E 023°36'0 0.0
2017-Feb-08 22:33N 38°02' E 023°36'0 0.0
2017-Feb-08 21:33N 38°02' E 023°36'0 0.0
2017-Feb-08 20:33N 38°02' E 023°36'0 0.0
2017-Feb-08 19:34N 38°02' E 023°36'4 4.4
2017-Feb-08 18:34N 38°01' E 023°30'5 5.1
2017-Feb-08 17:34N 37°58' E 023°25'6 6.4
2017-Feb-08 16:33N 37°51' E 023°24'7 6.7
2017-Feb-08 15:33N 37°45' E 023°25'0 0.2
2017-Feb-08 14:24N 37°45' E 023°26'2 2.8
2017-Feb-08 13:33N 37°42' E 023°26'6 6.2
2017-Feb-08 12:33N 37°38' E 023°32'9 6.7
2017-Feb-08 11:08N 37°35' E 023°43'39 4.4
2017-Feb-08 02:19N 37°39' E 024°32'7 6.7
2017-Feb-08 01:18N 37°45' E 024°37'8 6.8
2017-Feb-08 00:05N 37°51' E 024°43'1 0.0
2017-Feb-05 20:15N 37°52' E 024°43'4 5.9
2017-Feb-05 19:33N 37°56' E 024°40'5 0.2
2017-Feb-04 20:33N 37°59' E 024°35'7 6.8
2017-Feb-04 19:33N 37°54' E 024°29'7 7.0
2017-Feb-04 18:33N 37°51' E 024°21'7 6.9
2017-Feb-04 17:33N 37°48' E 024°13'10 0.8
2017-Feb-04 05:33N 37°40' E 024°19'0 0.0
2017-Feb-04 04:33N 37°40' E 024°19'0 0.0
2017-Feb-04 03:33N 37°40' E 024°19'0 0.0
2017-Feb-04 02:33N 37°40' E 024°19'0 0.0
2017-Feb-04 01:33N 37°40' E 024°19'0 0.0
2017-Feb-04 00:33N 37°40' E 024°19'0 0.0
2017-Feb-03 23:33N 37°40' E 024°19'5 3.6
2017-Feb-03 22:14N 37°42' E 024°24'4 6.5
2017-Feb-03 21:33N 37°41' E 024°30'6 5.8
2017-Feb-03 20:32N 37°40' E 024°37'17 5.6
2017-Feb-03 17:29N 37°41' E 024°59'22 0.9
2017-Feb-02 16:33N 37°19' E 024°54'  
Track history (hours):
 
Tides and Currents Weather Stations Pressure Air Temp Water Temp Dewpoint Dewpoint Depression Visibility Wind Speed Wind Dir Waves Ship Positions

Agia Marina

Last reported at 2017-Feb-11 06:29 UTC. Time now 2017-Feb-23 09:23 UTC.
Position N 38°02' E 023°36'.
Warning: this ship's position is 12 days out of date.

Length 59 m; draft 2.5 m.

Type: Cargo ship. MMSI: 237042500.

Date/timePositionNaut miles runAvg speedWind from/ knotsBaromVisibWave heightAir tempDewpointWater temp
2017-Feb-11 06:29N 38°02' E 023°36'0 0.0
2017-Feb-11 05:33N 38°02' E 023°36'0 0.0
2017-Feb-11 04:33N 38°02' E 023°36'0 0.0
2017-Feb-11 03:33N 38°02' E 023°36'0 0.0
2017-Feb-11 02:34N 38°02' E 023°36'0 0.0
2017-Feb-11 01:33N 38°02' E 023°36'0 0.0
2017-Feb-11 00:33N 38°02' E 023°36'0 0.0
2017-Feb-10 23:34N 38°02' E 023°36'0 0.0
2017-Feb-10 22:34N 38°02' E 023°36'0 0.0
2017-Feb-10 21:32N 38°02' E 023°36'0 0.0
2017-Feb-10 20:34N 38°02' E 023°36'0 0.0
2017-Feb-10 19:31N 38°02' E 023°36'0 0.0
2017-Feb-10 18:33N 38°02' E 023°36'0 0.0
2017-Feb-10 17:33N 38°02' E 023°36'0 0.0
2017-Feb-10 16:32N 38°02' E 023°36'0 0.0
2017-Feb-10 15:30N 38°02' E 023°36'0 0.0
2017-Feb-10 14:33N 38°02' E 023°36'0 0.0
2017-Feb-10 13:33N 38°02' E 023°36'0 0.0
2017-Feb-10 12:33N 38°02' E 023°36'0 0.0
2017-Feb-10 11:33N 38°02' E 023°36'0 0.0
2017-Feb-10 10:33N 38°02' E 023°36'0 0.0
2017-Feb-10 09:33N 38°02' E 023°36'0 0.0
2017-Feb-10 08:33N 38°02' E 023°36'0 0.0
2017-Feb-10 07:33N 38°02' E 023°36'0 0.0
2017-Feb-10 06:32N 38°02' E 023°36'0 0.0
2017-Feb-10 05:31N 38°02' E 023°36'0 0.0
2017-Feb-10 04:32N 38°02' E 023°36'0 0.0
2017-Feb-10 02:33N 38°02' E 023°36'0 0.0
2017-Feb-10 01:34N 38°02' E 023°36'0 0.0
2017-Feb-10 00:33N 38°02' E 023°36'0 0.0
2017-Feb-09 23:33N 38°02' E 023°36'0 0.0
2017-Feb-09 22:33N 38°02' E 023°36'0 0.0
2017-Feb-09 21:33N 38°02' E 023°36'0 0.0
2017-Feb-09 20:33N 38°02' E 023°36'0 0.0
2017-Feb-09 19:33N 38°02' E 023°36'0 0.0
2017-Feb-09 18:33N 38°02' E 023°36'0 0.0
2017-Feb-09 17:33N 38°02' E 023°36'0 0.0
2017-Feb-09 16:33N 38°02' E 023°36'0 0.0
2017-Feb-09 15:33N 38°02' E 023°36'0 0.0
2017-Feb-09 14:33N 38°02' E 023°36'0 0.0
2017-Feb-09 13:32N 38°02' E 023°36'0 0.0
2017-Feb-09 12:33N 38°02' E 023°36'0 0.0
2017-Feb-09 11:29N 38°02' E 023°36'0 0.0
2017-Feb-09 10:33N 38°02' E 023°36'0 0.0
2017-Feb-09 09:33N 38°02' E 023°36'0 0.0
2017-Feb-09 08:33N 38°02' E 023°36'0 0.0
2017-Feb-09 07:33N 38°02' E 023°36'0 0.0
2017-Feb-09 06:34N 38°02' E 023°36'0 0.0
2017-Feb-09 05:34N 38°02' E 023°36'0 0.0
2017-Feb-09 04:33N 38°02' E 023°36'0 0.0
2017-Feb-09 03:34N 38°02' E 023°36'0 0.0
2017-Feb-09 02:34N 38°02' E 023°36'0 0.0
2017-Feb-09 01:34N 38°02' E 023°36'0 0.0
2017-Feb-09 00:34N 38°02' E 023°36'0 0.0
2017-Feb-08 23:33N 38°02' E 023°36'0 0.0
2017-Feb-08 22:33N 38°02' E 023°36'0 0.0
2017-Feb-08 21:33N 38°02' E 023°36'0 0.0
2017-Feb-08 20:33N 38°02' E 023°36'0 0.0
2017-Feb-08 19:34N 38°02' E 023°36'4 4.4
2017-Feb-08 18:34N 38°01' E 023°30'5 5.1
2017-Feb-08 17:34N 37°58' E 023°25'6 6.4
2017-Feb-08 16:33N 37°51' E 023°24'7 6.7
2017-Feb-08 15:33N 37°45' E 023°25'0 0.2
2017-Feb-08 14:24N 37°45' E 023°26'2 2.8
2017-Feb-08 13:33N 37°42' E 023°26'6 6.2
2017-Feb-08 12:33N 37°38' E 023°32'9 6.7
2017-Feb-08 11:08N 37°35' E 023°43'39 4.4
2017-Feb-08 02:19N 37°39' E 024°32'7 6.7
2017-Feb-08 01:18N 37°45' E 024°37'8 6.8
2017-Feb-08 00:05N 37°51' E 024°43'1 0.0
2017-Feb-05 20:15N 37°52' E 024°43'4 5.9
2017-Feb-05 19:33N 37°56' E 024°40'5 0.2
2017-Feb-04 20:33N 37°59' E 024°35'7 6.8
2017-Feb-04 19:33N 37°54' E 024°29'7 7.0
2017-Feb-04 18:33N 37°51' E 024°21'7 6.9
2017-Feb-04 17:33N 37°48' E 024°13'10 0.8
2017-Feb-04 05:33N 37°40' E 024°19'0 0.0
2017-Feb-04 04:33N 37°40' E 024°19'0 0.0
2017-Feb-04 03:33N 37°40' E 024°19'0 0.0
2017-Feb-04 02:33N 37°40' E 024°19'0 0.0
2017-Feb-04 01:33N 37°40' E 024°19'0 0.0
2017-Feb-04 00:33N 37°40' E 024°19'0 0.0
2017-Feb-03 23:33N 37°40' E 024°19'5 3.6
2017-Feb-03 22:14N 37°42' E 024°24'4 6.5
2017-Feb-03 21:33N 37°41' E 024°30'6 5.8
2017-Feb-03 20:32N 37°40' E 024°37'17 5.6
2017-Feb-03 17:29N 37°41' E 024°59'22 0.9
2017-Feb-02 16:33N 37°19' E 024°54'  

Dump ship's entire track history